createdAt,value
2022-10-14T00:02:08.259Z,14.75
2022-10-14T00:04:35.966Z,14.81
2022-10-14T00:07:03.576Z,14.78
2022-10-14T00:09:31.162Z,14.94
2022-10-14T00:11:58.799Z,15.00
2022-10-14T00:14:27.796Z,15.11
2022-10-14T00:16:55.694Z,15.04
2022-10-14T00:19:23.542Z,15.08
2022-10-14T00:21:51.254Z,15.09
2022-10-14T00:24:19.023Z,14.85
2022-10-14T00:26:47.356Z,14.72
2022-10-14T00:29:18.656Z,14.89
2022-10-14T00:31:47.934Z,14.96
2022-10-14T00:34:16.096Z,14.95
2022-10-14T00:36:44.521Z,14.89
2022-10-14T00:39:12.379Z,14.81
2022-10-14T00:41:40.867Z,14.77
2022-10-14T00:44:29.401Z,14.65
2022-10-14T00:46:58.366Z,14.70
2022-10-14T00:49:28.520Z,14.63
2022-10-14T00:51:59.437Z,14.58
2022-10-14T00:54:36.872Z,14.71
2022-10-14T00:57:05.718Z,14.79
2022-10-14T00:59:34.315Z,14.89
2022-10-14T01:02:03.345Z,14.90
2022-10-14T01:04:31.284Z,14.90
2022-10-14T01:07:07.536Z,14.92
2022-10-14T01:09:41.961Z,14.89
2022-10-14T01:12:28.529Z,14.85
2022-10-14T01:15:05.066Z,14.80
2022-10-14T01:17:43.770Z,14.77
2022-10-14T01:20:42.455Z,14.71
2022-10-14T01:23:47.187Z,14.69
2022-10-14T01:26:31.287Z,14.66
2022-10-14T01:29:16.232Z,14.52
2022-10-14T01:31:49.208Z,14.50
2022-10-14T01:34:24.299Z,14.46
2022-10-14T01:36:57.204Z,14.50
2022-10-14T01:39:28.631Z,14.35
2022-10-14T01:42:02.146Z,14.30
2022-10-14T01:44:32.184Z,14.13
2022-10-14T01:47:03.628Z,14.17
2022-10-14T01:49:35.703Z,14.08
2022-10-14T01:52:08.321Z,14.10
2022-10-14T01:54:40.383Z,14.08
2022-10-14T01:57:12.558Z,13.93
2022-10-14T01:59:42.510Z,13.93
2022-10-14T02:02:13.587Z,13.98
2022-10-14T02:04:41.189Z,13.88
2022-10-14T02:07:14.515Z,13.88
2022-10-14T02:09:52.706Z,13.88
2022-10-14T02:12:29.668Z,13.83
2022-10-14T02:15:04.513Z,13.81
2022-10-14T02:17:39.563Z,13.75
2022-10-14T02:20:15.107Z,13.78
2022-10-14T02:22:46.498Z,13.75
2022-10-14T02:25:19.638Z,13.72
2022-10-14T02:27:49.172Z,13.75
2022-10-14T02:30:20.571Z,13.73
2022-10-14T02:32:52.248Z,13.72
2022-10-14T02:35:21.319Z,13.70
2022-10-14T02:37:50.625Z,13.71
2022-10-14T02:40:24.642Z,13.69
2022-10-14T02:42:52.253Z,13.77
2022-10-14T02:45:20.879Z,13.81
2022-10-14T02:47:49.793Z,13.83
2022-10-14T02:50:19.078Z,13.84
2022-10-14T02:52:46.686Z,13.86
2022-10-14T02:55:14.408Z,13.89
2022-10-14T02:57:42.008Z,13.84
2022-10-14T03:00:10.885Z,13.83
2022-10-14T03:02:38.483Z,13.86
2022-10-14T03:05:08.242Z,13.91
2022-10-14T03:07:35.905Z,13.95
2022-10-14T03:10:03.829Z,14.04
2022-10-14T03:12:31.461Z,14.01
2022-10-14T03:14:59.077Z,14.07
2022-10-14T03:17:26.835Z,14.09
2022-10-14T03:19:54.476Z,14.11
2022-10-14T03:22:23.804Z,14.13
2022-10-14T03:24:51.618Z,14.09
2022-10-14T03:27:19.305Z,14.11
2022-10-14T03:29:47.054Z,14.13
2022-10-14T03:32:14.908Z,14.19
2022-10-14T03:34:42.627Z,14.23
2022-10-14T03:37:10.314Z,14.25
2022-10-14T03:39:39.295Z,14.25
2022-10-14T03:42:06.984Z,14.37
2022-10-14T03:44:34.626Z,14.40
2022-10-14T03:47:02.222Z,14.31
2022-10-14T03:49:29.809Z,14.49
2022-10-14T03:51:57.438Z,14.44
2022-10-14T03:54:25.112Z,14.44
2022-10-14T03:56:54.073Z,14.45
2022-10-14T03:59:21.680Z,14.44
2022-10-14T04:01:49.419Z,14.42
2022-10-14T04:04:17.056Z,14.41
2022-10-14T04:06:44.654Z,14.46
2022-10-14T04:09:12.275Z,14.56
2022-10-14T04:11:39.818Z,14.53
2022-10-14T04:14:08.771Z,14.47
2022-10-14T04:16:36.349Z,14.45
2022-10-14T04:19:04.153Z,14.56
2022-10-14T04:21:31.762Z,14.60
2022-10-14T04:23:59.309Z,14.58
2022-10-14T04:26:26.963Z,14.61
2022-10-14T04:28:54.643Z,14.52
2022-10-14T04:31:23.622Z,14.45
2022-10-14T04:33:51.437Z,14.48
2022-10-14T04:36:19.002Z,14.46
2022-10-14T04:38:46.616Z,14.48
2022-10-14T04:41:14.326Z,14.50
2022-10-14T04:43:41.909Z,14.52
2022-10-14T04:46:09.576Z,14.49
2022-10-14T04:48:38.611Z,14.48
2022-10-14T04:51:06.668Z,14.45
2022-10-14T04:53:34.225Z,14.51
2022-10-14T04:56:01.770Z,14.51
2022-10-14T04:58:29.388Z,14.50
2022-10-14T05:00:57.183Z,14.48
2022-10-14T05:03:24.766Z,14.51
2022-10-14T05:05:53.758Z,14.56
2022-10-14T05:08:21.334Z,14.58
2022-10-14T05:10:49.590Z,14.56
2022-10-14T05:13:17.435Z,14.61
2022-10-14T05:15:45.398Z,14.61
2022-10-14T05:18:13.357Z,14.57
2022-10-14T05:20:41.001Z,14.46
2022-10-14T05:23:09.982Z,14.47
2022-10-14T05:25:37.595Z,14.44
2022-10-14T05:28:05.301Z,14.40
2022-10-14T05:30:34.871Z,14.32
2022-10-14T05:33:02.518Z,14.34
2022-10-14T05:35:53.991Z,14.35
2022-10-14T05:38:19.143Z,14.33
2022-10-14T05:40:53.076Z,14.31
2022-10-14T05:43:20.651Z,14.32
2022-10-14T05:45:48.232Z,14.34
2022-10-14T05:48:15.902Z,14.34
2022-10-14T05:50:43.923Z,14.38
2022-10-14T05:53:11.730Z,14.40
2022-10-14T05:55:41.465Z,14.43
2022-10-14T05:58:09.128Z,14.40
2022-10-14T06:00:36.737Z,14.36
2022-10-14T06:03:04.439Z,14.37
2022-10-14T06:05:32.130Z,14.29
2022-10-14T06:07:59.792Z,14.28
2022-10-14T06:10:27.744Z,14.25
2022-10-14T06:12:57.749Z,14.22
2022-10-14T06:15:25.337Z,14.19
2022-10-14T06:17:53.041Z,14.11
2022-10-14T06:20:21.008Z,14.10
2022-10-14T06:22:48.680Z,14.03
2022-10-14T06:25:16.388Z,14.03
2022-10-14T06:27:44.232Z,14.07
2022-10-14T06:30:14.482Z,14.11
2022-10-14T06:32:42.131Z,14.14
2022-10-14T06:35:10.427Z,14.22
2022-10-14T06:37:38.256Z,14.31
2022-10-14T06:40:06.939Z,14.23
2022-10-14T06:42:35.008Z,14.21
2022-10-14T06:45:02.732Z,14.15
2022-10-14T06:47:33.167Z,14.17
2022-10-14T06:50:00.787Z,14.22
2022-10-14T06:52:28.390Z,14.27
2022-10-14T06:54:56.344Z,14.31
2022-10-14T06:57:24.909Z,14.31
2022-10-14T06:59:52.499Z,14.37
2022-10-14T07:02:20.422Z,14.34
2022-10-14T07:04:49.736Z,14.35
2022-10-14T07:07:17.313Z,14.37
2022-10-14T07:09:44.921Z,14.44
2022-10-14T07:12:14.140Z,14.47
2022-10-14T07:14:41.990Z,14.56
2022-10-14T07:17:09.712Z,14.60
2022-10-14T07:19:37.299Z,14.61
2022-10-14T07:22:06.327Z,14.65
2022-10-14T07:24:33.933Z,14.71
2022-10-14T07:29:34.732Z,14.79
2022-10-14T07:32:02.322Z,14.88
2022-10-14T07:34:29.988Z,14.87
2022-10-14T07:36:57.699Z,14.81
2022-10-14T07:39:27.562Z,14.87
2022-10-14T07:41:55.812Z,15.06
2022-10-14T07:44:26.484Z,15.06
2022-10-14T07:46:55.279Z,15.06
2022-10-14T07:49:23.859Z,14.90
2022-10-14T07:51:51.563Z,14.82
2022-10-14T07:54:21.802Z,14.83
2022-10-14T07:56:50.886Z,15.15
2022-10-14T07:59:19.277Z,15.35
2022-10-14T08:01:47.575Z,15.38
2022-10-14T08:04:15.559Z,15.41
2022-10-14T08:06:43.409Z,15.44
2022-10-14T08:09:13.521Z,15.41
2022-10-14T08:11:41.869Z,15.42
2022-10-14T08:14:10.971Z,15.36
2022-10-14T08:16:39.727Z,15.26
2022-10-14T08:19:13.723Z,15.22
2022-10-14T08:21:42.691Z,15.24
2022-10-14T08:24:11.042Z,15.27
2022-10-14T08:26:40.020Z,15.40
2022-10-14T08:29:12.388Z,15.47
2022-10-14T08:31:40.090Z,15.53
2022-10-14T08:34:07.664Z,15.59
2022-10-14T08:36:35.467Z,15.64
2022-10-14T08:39:03.520Z,15.74
2022-10-14T08:41:48.095Z,15.79
2022-10-14T08:44:23.002Z,15.96
2022-10-14T08:46:53.777Z,15.91
2022-10-14T08:49:29.437Z,16.00
2022-10-14T08:52:01.974Z,15.94
2022-10-14T08:54:37.354Z,15.97
2022-10-14T08:57:06.380Z,16.08
2022-10-14T08:59:41.370Z,16.02
2022-10-14T09:02:21.831Z,16.06
2022-10-14T09:04:50.098Z,16.01
2022-10-14T09:07:20.571Z,16.01
2022-10-14T09:09:52.486Z,16.10
2022-10-14T09:12:25.266Z,16.31
2022-10-14T09:15:03.596Z,16.30
2022-10-14T09:17:37.880Z,16.05
2022-10-14T09:20:16.454Z,16.24
2022-10-14T09:22:44.564Z,16.43
2022-10-14T09:25:15.527Z,16.42
2022-10-14T09:27:43.650Z,16.27
2022-10-14T09:30:17.696Z,16.12
2022-10-14T09:32:49.076Z,16.47
2022-10-14T09:35:23.837Z,16.52
2022-10-14T09:37:52.107Z,16.56
2022-10-14T09:40:27.596Z,16.45
2022-10-14T09:43:00.560Z,16.60
2022-10-14T09:45:31.801Z,16.48
2022-10-14T09:48:07.151Z,16.62
2022-10-14T09:50:38.958Z,16.55
2022-10-14T09:53:15.348Z,16.70
2022-10-14T09:55:49.505Z,16.76
2022-10-14T09:58:19.668Z,16.80
2022-10-14T10:00:48.719Z,16.83
2022-10-14T10:06:08.094Z,16.87
2022-10-14T10:08:38.248Z,16.87
2022-10-14T10:11:09.063Z,16.82
2022-10-14T10:13:45.228Z,16.97
2022-10-14T10:16:23.993Z,16.81
2022-10-14T10:18:54.142Z,16.90
2022-10-14T10:21:26.385Z,16.92
2022-10-14T10:23:57.553Z,16.70
2022-10-14T10:26:29.513Z,16.97
2022-10-14T10:28:59.025Z,17.15
2022-10-14T10:31:52.523Z,17.17
2022-10-14T10:34:56.727Z,17.23
2022-10-14T10:37:31.412Z,17.22
2022-10-14T10:40:23.143Z,17.09
2022-10-14T10:43:02.759Z,17.15
2022-10-14T10:45:43.123Z,17.34
2022-10-14T10:48:18.375Z,17.20
2022-10-14T10:50:57.559Z,16.91
2022-10-14T10:53:37.715Z,16.82
2022-10-14T10:56:13.489Z,17.36
2022-10-14T10:58:44.129Z,17.44
2022-10-14T11:01:26.237Z,17.41
2022-10-14T11:04:11.555Z,17.36
2022-10-14T11:07:03.369Z,17.56
2022-10-14T11:09:57.630Z,17.67
2022-10-14T11:12:34.151Z,17.59
2022-10-14T11:15:41.702Z,17.66
2022-10-14T11:18:12.969Z,17.72
2022-10-14T11:20:51.693Z,17.71
2022-10-14T11:23:39.289Z,17.74
2022-10-14T11:26:15.849Z,17.79
2022-10-14T11:28:51.226Z,17.83
2022-10-14T11:31:29.742Z,17.85
2022-10-14T11:34:13.217Z,17.87
2022-10-14T11:36:50.839Z,17.87
2022-10-14T11:39:36.050Z,17.91
2022-10-14T11:42:27.014Z,17.94
2022-10-14T11:45:08.771Z,17.73
2022-10-14T11:47:41.654Z,17.55
2022-10-14T11:50:18.427Z,17.79
2022-10-14T11:52:55.650Z,17.94
2022-10-14T11:55:24.800Z,18.06
2022-10-14T11:57:55.265Z,18.12
2022-10-14T12:01:01.321Z,18.07
2022-10-14T12:03:44.082Z,18.15
2022-10-14T12:06:16.611Z,18.21
2022-10-14T12:08:50.258Z,18.10
2022-10-14T12:11:28.631Z,18.19
2022-10-14T12:14:03.959Z,18.23
2022-10-14T12:16:32.391Z,18.25
2022-10-14T12:19:00.099Z,18.25
2022-10-14T12:21:33.229Z,18.25
2022-10-14T12:24:07.966Z,18.22
2022-10-14T12:26:52.197Z,18.24
2022-10-14T12:29:23.684Z,18.18
2022-10-14T12:32:07.382Z,18.14
2022-10-14T12:34:38.425Z,18.18
2022-10-14T12:37:45.274Z,18.29
2022-10-14T12:40:31.374Z,18.25
2022-10-14T12:43:20.344Z,18.19
2022-10-14T12:46:02.669Z,18.19
2022-10-14T12:48:33.847Z,18.16
2022-10-14T12:51:11.514Z,18.13
2022-10-14T12:53:41.650Z,18.14
2022-10-14T12:56:11.308Z,18.16
2022-10-14T12:58:43.714Z,18.17
2022-10-14T13:01:18.766Z,18.12
2022-10-14T13:03:53.964Z,18.08
2022-10-14T13:06:35.495Z,18.18
2022-10-14T13:09:36.373Z,18.22
2022-10-14T13:12:45.469Z,18.23
2022-10-14T13:15:59.617Z,18.18
2022-10-14T13:18:50.339Z,18.18
2022-10-14T13:21:32.119Z,18.16
2022-10-14T13:24:19.936Z,18.19
2022-10-14T13:27:13.118Z,18.18
2022-10-14T13:30:07.699Z,18.11
2022-10-14T13:32:42.231Z,18.13
2022-10-14T13:35:22.759Z,18.10
2022-10-14T13:37:57.903Z,18.11
2022-10-14T13:40:30.123Z,18.11
2022-10-14T13:42:59.642Z,18.14
2022-10-14T13:45:35.937Z,18.12
2022-10-14T13:48:06.166Z,18.04
2022-10-14T13:50:38.539Z,18.02
2022-10-14T13:53:14.954Z,17.90
2022-10-14T13:55:50.354Z,17.87
2022-10-14T13:58:22.564Z,17.87
2022-10-14T14:01:02.058Z,17.89
2022-10-14T14:03:33.351Z,17.89
2022-10-14T14:06:09.958Z,17.86
2022-10-14T14:08:47.488Z,17.84
2022-10-14T14:11:20.384Z,17.81
2022-10-14T14:13:59.961Z,17.71
2022-10-14T14:16:32.706Z,17.37
2022-10-14T14:19:08.367Z,16.93
2022-10-14T14:21:38.426Z,16.79
2022-10-14T14:24:16.784Z,16.67
2022-10-14T14:26:45.165Z,16.58
2022-10-14T14:29:18.641Z,16.48
2022-10-14T14:32:06.239Z,16.48
2022-10-14T14:34:36.678Z,16.57
2022-10-14T14:39:59.281Z,16.66
2022-10-14T14:42:28.222Z,16.63
2022-10-14T14:44:59.847Z,16.85
2022-10-14T14:47:29.209Z,16.74
2022-10-14T14:50:24.970Z,16.79
2022-10-14T14:52:49.242Z,16.90
2022-10-14T14:55:41.645Z,16.77
2022-10-14T14:58:22.924Z,16.95
2022-10-14T15:00:51.594Z,17.07
2022-10-14T15:03:19.249Z,16.97
2022-10-14T15:05:51.693Z,16.85
2022-10-14T15:08:23.762Z,17.09
2022-10-14T15:10:52.505Z,17.04
2022-10-14T15:13:30.732Z,17.04
2022-10-14T15:15:58.729Z,16.99
2022-10-14T15:18:28.707Z,17.10
2022-10-14T15:21:14.378Z,17.07
2022-10-14T15:23:46.896Z,17.01
2022-10-14T15:26:23.986Z,17.03
2022-10-14T15:32:06.070Z,17.08
2022-10-14T15:34:35.589Z,17.00
2022-10-14T15:37:03.235Z,16.95
2022-10-14T15:39:32.146Z,16.96
2022-10-14T15:41:59.828Z,17.15
2022-10-14T15:44:27.431Z,17.23
2022-10-14T15:47:12.500Z,17.24
2022-10-14T15:49:43.213Z,17.22
2022-10-14T15:52:15.279Z,17.16
2022-10-14T15:54:48.094Z,17.07
2022-10-14T15:57:16.791Z,17.03
2022-10-14T15:59:47.727Z,16.95
2022-10-14T16:02:19.495Z,16.89
2022-10-14T16:05:07.317Z,16.85
2022-10-14T16:07:35.173Z,16.80
2022-10-14T16:10:05.199Z,16.77
2022-10-14T16:12:32.911Z,16.79
2022-10-14T16:15:02.009Z,16.78
2022-10-14T16:17:29.751Z,16.73
2022-10-14T16:19:57.357Z,16.74
2022-10-14T16:22:24.972Z,16.76
2022-10-14T16:24:54.342Z,16.69
2022-10-14T16:27:24.596Z,16.67
2022-10-14T16:29:52.410Z,16.58
2022-10-14T16:32:19.999Z,16.55
2022-10-14T16:34:47.607Z,16.61
2022-10-14T16:37:15.234Z,16.63
2022-10-14T16:39:42.819Z,16.62
2022-10-14T16:42:10.442Z,16.64
2022-10-14T16:44:39.429Z,16.61
2022-10-14T16:47:19.999Z,16.61
2022-10-14T16:49:51.906Z,16.60
2022-10-14T16:52:20.163Z,16.57
2022-10-14T16:54:50.935Z,16.63
2022-10-14T16:57:18.854Z,16.67
2022-10-14T16:59:47.828Z,16.66
2022-10-14T17:02:17.002Z,16.62
2022-10-14T17:04:46.490Z,16.70
2022-10-14T17:07:16.567Z,16.68
2022-10-14T17:09:44.201Z,16.77
2022-10-14T17:12:13.990Z,16.79
2022-10-14T17:14:42.927Z,16.73
2022-10-14T17:17:12.446Z,16.77
2022-10-14T17:19:40.198Z,16.79
2022-10-14T17:22:07.843Z,16.74
2022-10-14T17:24:35.452Z,16.70
2022-10-14T17:27:04.645Z,16.62
2022-10-14T17:29:32.655Z,16.48
2022-10-14T17:32:00.321Z,16.39
2022-10-14T17:34:29.328Z,16.34
2022-10-14T17:36:57.019Z,16.29
2022-10-14T17:39:29.206Z,16.21
2022-10-14T17:41:57.535Z,16.21
2022-10-14T17:44:25.718Z,16.21
2022-10-14T17:46:53.829Z,16.24
2022-10-14T17:49:22.060Z,16.13
2022-10-14T17:51:51.015Z,16.12
2022-10-14T17:54:18.634Z,16.10
2022-10-14T17:56:46.214Z,16.08
2022-10-14T17:59:14.316Z,16.09
2022-10-14T18:04:29.956Z,16.09
2022-10-14T18:06:59.189Z,16.07
2022-10-14T18:09:26.814Z,16.07
2022-10-14T18:12:10.480Z,16.03
2022-10-14T18:14:38.646Z,15.99
2022-10-14T18:17:06.450Z,15.91
2022-10-14T18:19:35.031Z,15.97
2022-10-14T18:22:04.091Z,15.94
2022-10-14T18:24:35.367Z,15.94
2022-10-14T18:27:19.982Z,15.94
2022-10-14T18:29:57.248Z,15.94
2022-10-14T18:33:26.431Z,15.94
2022-10-14T18:48:29.872Z,16.03
2022-10-14T18:51:41.170Z,16.03
2022-10-14T18:58:23.298Z,16.06
2022-10-14T19:01:16.238Z,16.04
2022-10-14T19:03:47.543Z,16.07
2022-10-14T19:06:28.093Z,16.13
2022-10-14T19:09:32.210Z,16.07
2022-10-14T19:12:46.423Z,16.00
2022-10-14T19:15:16.185Z,15.99
2022-10-14T19:17:45.999Z,16.02
2022-10-14T19:20:14.758Z,15.99
2022-10-14T19:22:44.813Z,16.06
2022-10-14T19:25:12.640Z,16.11
2022-10-14T19:27:40.275Z,16.09
2022-10-14T19:30:09.165Z,16.10
2022-10-14T19:32:38.113Z,16.06
2022-10-14T19:35:06.513Z,16.06
2022-10-14T19:37:34.231Z,16.13
2022-10-14T19:40:01.872Z,16.13
2022-10-14T19:42:29.509Z,16.10
2022-10-14T19:44:57.111Z,16.12
2022-10-14T19:47:25.082Z,16.20
2022-10-14T19:49:54.252Z,16.25
2022-10-14T19:52:21.893Z,16.19
2022-10-14T19:54:49.479Z,16.23
2022-10-14T19:57:17.036Z,16.19
2022-10-14T19:59:44.682Z,16.19
2022-10-14T20:02:12.302Z,16.16
2022-10-14T20:04:39.940Z,16.16
2022-10-14T20:07:10.432Z,16.12
2022-10-14T20:09:38.106Z,16.14
2022-10-14T20:12:06.101Z,16.16
2022-10-14T20:14:33.720Z,16.15
2022-10-14T20:17:01.956Z,16.20
2022-10-14T20:19:29.534Z,16.23
2022-10-14T20:22:16.370Z,16.23
2022-10-14T20:24:46.906Z,16.26
2022-10-14T20:27:15.186Z,16.28
2022-10-14T20:29:42.874Z,16.30
2022-10-14T20:32:10.961Z,16.30
2022-10-14T20:34:38.633Z,16.27
2022-10-14T20:37:06.316Z,16.22
2022-10-14T20:39:33.930Z,16.32
2022-10-14T20:42:02.888Z,16.34
2022-10-14T20:44:30.618Z,16.26
2022-10-14T20:46:58.264Z,16.31
2022-10-14T20:49:25.883Z,16.26
2022-10-14T20:51:53.476Z,16.19
2022-10-14T20:54:21.237Z,16.21
2022-10-14T20:56:50.202Z,16.21
2022-10-14T20:59:19.130Z,16.37
2022-10-14T21:01:46.958Z,16.36
2022-10-14T21:04:14.716Z,16.35
2022-10-14T21:06:42.266Z,16.35
2022-10-14T21:09:10.682Z,16.36
2022-10-14T21:11:39.338Z,16.26
2022-10-14T21:14:06.907Z,16.15
2022-10-14T21:16:37.323Z,16.12
2022-10-14T21:19:07.261Z,16.07
2022-10-14T21:21:36.919Z,16.14
2022-10-14T21:24:05.059Z,16.22
2022-10-14T21:26:32.901Z,16.19
2022-10-14T21:29:01.720Z,16.17
2022-10-14T21:31:29.392Z,16.14
2022-10-14T21:34:04.396Z,16.12
2022-10-14T21:36:34.031Z,16.15
2022-10-14T21:39:01.904Z,16.13
2022-10-14T21:41:29.553Z,16.09
2022-10-14T21:43:59.289Z,16.07
2022-10-14T21:46:27.751Z,16.00
2022-10-14T21:48:57.570Z,16.00
2022-10-14T21:51:27.521Z,16.03
2022-10-14T21:53:55.795Z,16.04
2022-10-14T21:56:24.480Z,16.03
2022-10-14T21:58:52.681Z,15.93
2022-10-14T22:01:22.031Z,15.92
2022-10-14T22:03:54.758Z,15.80
2022-10-14T22:06:22.522Z,15.83
2022-10-14T22:08:53.446Z,15.85
2022-10-14T22:11:24.294Z,15.85
2022-10-14T22:13:52.857Z,15.84
2022-10-14T22:16:20.514Z,15.91
2022-10-14T22:18:50.463Z,15.96
2022-10-14T22:21:20.187Z,15.89
2022-10-14T22:23:49.049Z,15.85
2022-10-14T22:26:20.582Z,15.81
2022-10-14T22:28:48.732Z,15.75
2022-10-14T22:31:18.106Z,15.72
2022-10-14T22:33:46.010Z,15.60
2022-10-14T22:36:19.377Z,15.62
2022-10-14T22:38:50.947Z,15.61
2022-10-14T22:41:21.802Z,15.62
2022-10-14T22:43:50.454Z,15.60
2022-10-14T22:46:20.610Z,15.61
2022-10-14T22:48:48.960Z,15.54
2022-10-14T22:51:19.124Z,15.43
2022-10-14T22:53:47.998Z,15.41
2022-10-14T22:56:22.634Z,15.42
2022-10-14T22:58:53.826Z,15.38
2022-10-14T23:01:22.516Z,15.41
2022-10-14T23:03:50.216Z,15.36
2022-10-14T23:06:18.183Z,15.36
2022-10-14T23:08:46.011Z,15.42
2022-10-14T23:11:15.160Z,15.49
2022-10-14T23:13:44.635Z,15.45
2022-10-14T23:16:14.346Z,15.44
2022-10-14T23:21:17.133Z,15.31
2022-10-14T23:23:45.609Z,15.25
2022-10-14T23:26:14.338Z,15.18
2022-10-14T23:28:42.257Z,15.17
2022-10-14T23:31:14.417Z,15.16
2022-10-14T23:33:42.932Z,15.19
2022-10-14T23:36:12.580Z,15.20
2022-10-14T23:38:41.332Z,15.12
2022-10-14T23:41:10.451Z,15.13
2022-10-14T23:43:38.525Z,15.13
2022-10-14T23:46:07.219Z,15.10
2022-10-14T23:48:36.822Z,15.15
2022-10-14T23:51:04.818Z,15.15
2022-10-14T23:53:32.581Z,15.21
2022-10-14T23:56:00.309Z,15.18
2022-10-14T23:58:29.712Z,15.14
